Time;durP1;ratioP1;P1;durP2;ratioP2;P2;SDS_P1;SDS_P2;PMS_P1;PMS_P2;Temp;Humidity;BMP_temperature;BMP_pressure;BME280_temperature;BME280_humidity;BME280_pressure;Samples;Min_cycle;Max_cycle;Signal;HPM_P1;HPM_P2
2023/03/16 00:01:04;;;;;;;;;9.00;9.00;;;;;12.67;84.81;100882.31;4888432;28;45466;-84
2023/03/16 00:03:33;;;;;;;;;9.33;9.00;;;;;12.74;81.33;100867.22;4858991;29;45339;-83
2023/03/16 00:05:59;;;;;;;;;7.33;7.33;;;;;12.50;81.94;100873.25;4890751;28;44908;-83
2023/03/16 00:08:24;;;;;;;;;4.33;4.33;;;;;12.42;81.13;100862.50;4876697;29;45379;-83
2023/03/16 00:10:52;;;;;;;;;10.00;9.33;;;;;12.56;79.10;100867.97;4875597;29;45250;-83
2023/03/16 00:13:24;;;;;;;;;9.00;8.00;;;;;12.47;83.78;100878.59;4862108;29;44753;-83
2023/03/16 00:15:55;;;;;;;;;9.00;9.00;;;;;12.56;79.93;100874.22;4892748;29;45369;-83
2023/03/16 00:18:26;;;;;;;;;8.00;8.00;;;;;12.41;84.84;100874.97;4878748;29;46844;-83
2023/03/16 00:20:58;;;;;;;;;8.00;8.00;;;;;12.55;81.59;100871.53;4861700;29;45387;-83
2023/03/16 00:23:28;;;;;;;;;10.33;8.00;;;;;12.39;82.32;100867.84;4869825;29;45404;-83
2023/03/16 00:26:02;;;;;;;;;7.67;7.67;;;;;12.33;85.25;100854.47;4862495;29;45385;-83
2023/03/16 00:28:33;;;;;;;;;9.33;9.00;;;;;12.29;83.12;100853.53;4860422;29;47114;-84
2023/03/16 00:31:10;;;;;;;;;9.00;9.00;;;;;12.23;81.77;100858.81;4878566;29;45412;-82
2023/03/16 00:33:38;;;;;;;;;8.67;8.67;;;;;12.21;84.96;100858.78;4877016;29;45396;-83
2023/03/16 00:36:08;;;;;;;;;6.00;6.00;;;;;12.27;80.35;100859.72;4878368;29;44686;-83
2023/03/16 00:38:35;;;;;;;;;10.67;9.33;;;;;12.27;80.89;100854.41;4877691;29;47451;-83
2023/03/16 00:41:03;;;;;;;;;6.33;6.33;;;;;12.23;85.27;100849.91;4877589;29;45549;-83
2023/03/16 00:43:40;;;;;;;;;8.00;8.00;;;;;12.21;83.78;100841.91;4876672;29;45449;-83
2023/03/16 00:46:07;;;;;;;;;9.67;9.33;;;;;12.14;86.16;100842.72;4877786;29;45415;-83
2023/03/16 00:48:38;;;;;;;;;11.00;9.00;;;;;12.18;82.60;100823.22;4876991;29;45404;-83
2023/03/16 00:51:06;;;;;;;;;8.67;8.67;;;;;12.06;84.47;100821.34;4877388;29;45386;-82
2023/03/16 00:53:35;;;;;;;;;10.00;9.33;;;;;11.99;87.07;100827.47;4892278;29;45465;-83
2023/03/16 00:56:03;;;;;;;;;9.33;6.67;;;;;11.94;83.12;100838.09;4877177;29;45442;-83
2023/03/16 00:58:29;;;;;;;;;12.00;8.67;;;;;11.96;89.91;100843.44;4892475;29;46861;-83
2023/03/16 01:00:56;;;;;;;;;7.00;7.00;;;;;11.93;90.20;100840.75;4876096;29;45396;-83
2023/03/16 01:03:21;;;;;;;;;9.67;8.00;;;;;11.96;88.04;100848.78;4878347;29;45442;-82
2023/03/16 01:05:47;;;;;;;;;7.67;7.67;;;;;12.00;90.79;100851.50;4876776;29;45399;-83
2023/03/16 01:08:13;;;;;;;;;11.33;11.33;;;;;11.93;89.18;100854.06;4878497;29;45521;-83
2023/03/16 01:10:39;;;;;;;;;13.00;11.00;;;;;12.00;89.82;100871.94;4877475;29;45411;-83
2023/03/16 01:13:06;;;;;;;;;8.00;8.00;;;;;11.94;90.70;100850.53;4877884;29;45407;-83
2023/03/16 01:15:33;;;;;;;;;11.67;11.67;;;;;11.99;88.80;100848.81;4893762;29;45278;-83
2023/03/16 01:17:59;;;;;;;;;10.00;8.00;;;;;11.92;89.83;100817.66;4880058;29;46088;-83
2023/03/16 01:20:25;;;;;;;;;9.00;9.00;;;;;11.87;87.87;100800.69;4879391;29;45376;-83
2023/03/16 01:22:51;;;;;;;;;10.00;10.00;;;;;11.86;90.55;100798.91;4874915;29;45409;-83
2023/03/16 01:25:17;;;;;;;;;11.33;11.33;;;;;11.78;90.88;100807.69;4877513;29;45246;-83
2023/03/16 01:27:42;;;;;;;;;12.00;9.33;;;;;11.72;88.01;100796.09;4874276;29;46849;-83
2023/03/16 01:30:11;;;;;;;;;9.00;9.00;;;;;11.83;94.48;100799.75;4875620;29;45660;-83
2023/03/16 01:32:38;;;;;;;;;11.00;10.67;;;;;11.77;93.79;100783.69;4876350;29;45788;-82
2023/03/16 01:35:05;;;;;;;;;10.67;8.67;;;;;11.75;92.39;100794.34;4860116;29;45237;-82
2023/03/16 01:37:30;;;;;;;;;10.00;8.33;;;;;11.68;95.65;100783.63;4890457;28;45319;-83
2023/03/16 01:39:56;;;;;;;;;9.00;7.00;;;;;11.72;90.95;100789.00;4876413;29;45357;-84
2023/03/16 01:42:22;;;;;;;;;9.00;8.33;;;;;11.73;94.26;100785.44;4875801;29;45278;-83
2023/03/16 01:45:04;;;;;;;;;9.00;9.00;;;;;11.96;92.19;100790.16;4877532;29;45542;-83
2023/03/16 01:47:37;;;;;;;;;8.67;7.33;;;;;11.79;92.45;100787.28;4861411;29;48080;-83
2023/03/16 01:50:04;;;;;;;;;12.00;9.33;;;;;11.86;89.93;100793.56;4860437;29;45497;-83
2023/03/16 01:52:35;;;;;;;;;13.67;12.00;;;;;11.87;92.54;100780.25;4875126;29;45361;-83
2023/03/16 01:55:12;;;;;;;;;9.33;9.33;;;;;11.86;93.45;100780.25;4878055;29;45898;-83
2023/03/16 01:57:42;;;;;;;;;8.33;7.00;;;;;11.86;96.31;100778.47;4877044;29;46708;-83
2023/03/16 02:00:18;;;;;;;;;8.33;8.33;;;;;11.69;93.92;100767.63;4875894;29;45556;-83
2023/03/16 02:02:51;;;;;;;;;10.67;8.00;;;;;11.79;91.52;100758.84;4877195;28;45455;-84
2023/03/16 02:05:25;;;;;;;;;7.00;7.00;;;;;11.79;90.04;100756.19;4876774;29;45283;-84
2023/03/16 02:07:57;;;;;;;;;10.00;10.00;;;;;11.63;88.66;100753.38;4859255;29;47750;-84
2023/03/16 02:10:24;;;;;;;;;10.67;10.67;;;;;11.54;89.65;100755.06;4876122;29;45483;-83
2023/03/16 02:12:52;;;;;;;;;9.67;8.00;;;;;11.50;91.01;100763.00;4875971;29;44760;-84
2023/03/16 02:15:18;;;;;;;;;9.33;8.33;;;;;11.39;90.36;100763.78;4882371;28;44963;-83
2023/03/16 02:17:45;;;;;;;;;9.33;8.00;;;;;11.50;91.47;100757.69;4874216;28;47075;-83
2023/03/16 02:20:29;;;;;;;;;9.67;8.33;;;;;11.63;90.55;100756.91;4875131;29;45430;-83
2023/03/16 02:22:58;;;;;;;;;9.33;9.33;;;;;11.27;93.55;100750.34;4874992;29;44833;-84
2023/03/16 02:25:50;;;;;;;;;7.67;7.67;;;;;11.53;91.77;100752.38;4857925;29;45327;-83
2023/03/16 02:28:30;;;;;;;;;9.33;9.33;;;;;11.48;92.62;100743.47;4873251;29;47187;-84
2023/03/16 02:30:56;;;;;;;;;13.67;11.00;;;;;11.26;90.79;100753.88;4873926;29;45265;-83
2023/03/16 02:33:24;;;;;;;;;14.33;12.33;;;;;11.41;93.10;100750.47;4875329;29;45355;-83
2023/03/16 02:35:50;;;;;;;;;7.67;7.67;;;;;11.20;92.42;100748.47;4874197;29;45371;-83
2023/03/16 02:38:15;;;;;;;;;10.67;9.67;;;;;11.15;93.30;100734.19;4875191;29;45468;-83
2023/03/16 02:40:42;;;;;;;;;9.00;9.00;;;;;11.12;92.41;100735.06;4874702;29;45761;-83
2023/03/16 02:43:17;;;;;;;;;9.67;9.67;;;;;11.09;91.30;100732.38;4875643;29;45358;-84
2023/03/16 02:45:54;;;;;;;;;11.00;11.00;;;;;11.25;92.22;100728.13;4877028;29;45528;-83
2023/03/16 02:48:28;;;;;;;;;11.00;9.33;;;;;11.25;90.76;100717.50;4895833;29;45615;-84
2023/03/16 02:50:54;;;;;;;;;9.67;8.33;;;;;11.01;93.12;100711.00;4894857;29;44791;-83
2023/03/16 02:53:19;;;;;;;;;17.33;9.33;;;;;10.99;92.56;100707.44;4878394;29;44633;-83
2023/03/16 02:55:45;;;;;;;;;12.33;12.33;;;;;10.96;96.45;100693.19;4877829;29;45871;-84
2023/03/16 02:58:14;;;;;;;;;11.00;11.00;;;;;11.06;94.44;100675.56;4893518;29;45415;-83
2023/03/16 03:00:41;;;;;;;;;9.00;8.00;;;;;10.96;94.64;100699.41;4892591;29;45450;-83
2023/03/16 03:03:08;;;;;;;;;8.00;8.00;;;;;11.00;92.25;100703.88;4877573;29;45451;-84
2023/03/16 03:05:34;;;;;;;;;14.00;12.00;;;;;10.89;91.44;100697.56;4878736;29;45353;-83
2023/03/16 03:08:00;;;;;;;;;14.00;11.00;;;;;10.91;92.60;100693.16;4895171;29;45284;-84
2023/03/16 03:10:25;;;;;;;;;12.00;9.00;;;;;10.89;93.08;100699.34;4894296;29;45657;-83
2023/03/16 03:12:51;;;;;;;;;11.67;11.00;;;;;10.85;92.34;100693.06;4879316;29;45316;-83
2023/03/16 03:15:17;;;;;;;;;13.00;12.00;;;;;10.94;93.37;100693.16;4894043;29;45555;-83
2023/03/16 03:17:44;;;;;;;;;7.67;7.67;;;;;10.83;90.49;100694.81;4877101;29;48226;-83
2023/03/16 03:20:17;;;;;;;;;9.67;9.00;;;;;10.78;89.34;100677.91;4876556;29;45865;-83
2023/03/16 03:22:45;;;;;;;;;6.00;6.00;;;;;10.85;90.79;100690.41;4893296;29;44772;-84
2023/03/16 03:25:13;;;;;;;;;10.33;9.00;;;;;10.78;91.06;100692.09;4892905;29;45404;-83
2023/03/16 03:27:41;;;;;;;;;10.67;10.67;;;;;10.77;92.36;100695.63;4875966;29;47096;-84
2023/03/16 03:30:11;;;;;;;;;13.00;12.00;;;;;10.93;89.99;100696.72;4891768;29;45426;-84
2023/03/16 03:32:38;;;;;;;;;13.67;10.67;;;;;10.76;91.43;100687.63;4876199;29;45542;-84
2023/03/16 03:35:13;;;;;;;;;9.67;9.00;;;;;10.95;91.20;100688.75;4876612;29;45327;-83
2023/03/16 03:37:41;;;;;;;;;9.67;8.00;;;;;10.74;89.88;100678.72;4894451;29;45662;-83
2023/03/16 03:40:09;;;;;;;;;12.00;9.00;;;;;10.81;89.78;100688.59;4894067;29;45532;-82
2023/03/16 03:42:39;;;;;;;;;12.00;9.00;;;;;10.70;93.78;100683.13;4893824;29;45446;-83
2023/03/16 03:45:05;;;;;;;;;10.33;8.67;;;;;10.70;95.37;100676.91;4875733;29;45376;-83
2023/03/16 03:47:31;;;;;;;;;11.00;8.67;;;;;10.65;88.74;100681.28;4879746;29;46506;-82
2023/03/16 03:49:56;;;;;;;;;12.33;10.67;;;;;10.60;88.81;100671.50;4879220;29;45392;-83
2023/03/16 03:52:22;;;;;;;;;11.33;11.33;;;;;10.57;89.33;100674.09;4878487;29;45653;-83
2023/03/16 03:54:47;;;;;;;;;8.33;7.00;;;;;10.61;91.44;100681.25;4877411;29;45319;-83
2023/03/16 03:57:19;;;;;;;;;9.33;8.00;;;;;10.57;88.97;100684.75;4879182;29;45537;-83
2023/03/16 03:59:44;;;;;;;;;9.00;9.00;;;;;10.53;87.65;100669.63;4878687;29;45494;-83
2023/03/16 04:02:12;;;;;;;;;11.00;9.67;;;;;10.58;90.30;100662.59;4878403;29;45503;-83
2023/03/16 04:04:38;;;;;;;;;9.67;9.67;;;;;10.54;93.06;100654.53;4877725;29;45317;-83
2023/03/16 04:07:04;;;;;;;;;11.00;8.00;;;;;10.36;87.84;100645.47;4877986;29;46253;-84
2023/03/16 04:09:32;;;;;;;;;10.00;7.33;;;;;10.47;88.94;100652.69;4862217;29;45526;-83
2023/03/16 04:12:02;;;;;;;;;8.00;6.33;;;;;10.52;91.12;100656.28;4876330;29;45416;-83
2023/03/16 04:14:28;;;;;;;;;11.00;8.00;;;;;10.48;91.35;100650.03;4877319;29;45907;-83
2023/03/16 04:16:54;;;;;;;;;10.33;9.33;;;;;10.48;92.05;100649.16;4877861;29;48519;-83
2023/03/16 04:19:21;;;;;;;;;9.00;6.67;;;;;10.52;89.69;100640.34;4877403;29;44780;-83
2023/03/16 04:21:47;;;;;;;;;8.00;6.67;;;;;10.44;93.25;100642.00;4875493;29;45391;-84
2023/03/16 04:24:13;;;;;;;;;11.00;7.67;;;;;10.37;88.66;100628.63;4877591;29;45406;-84
2023/03/16 04:26:39;;;;;;;;;8.00;6.33;;;;;10.38;89.28;100627.78;4876909;29;47141;-83
2023/03/16 04:29:05;;;;;;;;;7.33;6.00;;;;;10.38;92.71;100618.88;4877756;29;45237;-84
2023/03/16 04:31:30;;;;;;;;;8.33;8.33;;;;;10.47;94.34;100637.63;4879114;29;45383;-83
2023/03/16 04:33:56;;;;;;;;;8.00;7.00;;;;;10.41;86.63;100626.91;4878445;29;45749;-83
2023/03/16 04:36:23;;;;;;;;;7.00;7.00;;;;;10.41;88.09;100626.91;4877658;29;46719;-84
2023/03/16 04:38:49;;;;;;;;;7.33;7.33;;;;;10.40;90.07;100626.03;4892116;29;44903;-84
2023/03/16 04:41:15;;;;;;;;;7.00;7.00;;;;;10.39;89.10;100621.56;4891920;29;45504;-83
2023/03/16 04:43:42;;;;;;;;;4.67;4.67;;;;;10.34;87.49;100617.97;4876332;29;44925;-83
2023/03/16 04:46:08;;;;;;;;;11.00;6.00;;;;;10.38;88.47;100616.22;4879695;29;45504;-83
2023/03/16 04:48:35;;;;;;;;;9.33;7.67;;;;;10.41;89.87;100618.94;4877724;29;45331;-83
2023/03/16 04:51:02;;;;;;;;;4.00;4.00;;;;;10.39;89.66;100618.03;4878824;29;45412;-83
2023/03/16 04:53:30;;;;;;;;;5.33;5.33;;;;;10.47;88.16;100613.69;4877599;29;45338;-83
2023/03/16 04:56:00;;;;;;;;;7.00;7.00;;;;;10.38;87.85;100608.25;4876625;29;47071;-84
2023/03/16 04:58:26;;;;;;;;;7.33;5.67;;;;;10.37;89.11;100606.47;4874480;29;45338;-84
2023/03/16 05:00:52;;;;;;;;;8.00;6.00;;;;;10.48;87.09;100606.59;4877437;29;45471;-83
2023/03/16 05:03:18;;;;;;;;;7.00;7.00;;;;;10.39;89.16;100615.38;4876505;29;45601;-84
2023/03/16 05:05:45;;;;;;;;;6.00;6.00;;;;;10.45;87.21;100599.50;4892075;29;46900;-83
2023/03/16 05:08:11;;;;;;;;;6.67;6.67;;;;;10.32;89.00;100608.19;4876449;29;45338;-83
2023/03/16 05:10:37;;;;;;;;;7.00;5.33;;;;;10.40;86.79;100598.53;4876578;29;45617;-85
2023/03/16 05:13:06;;;;;;;;;7.67;7.00;;;;;10.63;91.17;100603.25;4877669;29;45427;-83
2023/03/16 05:15:32;;;;;;;;;5.67;5.67;;;;;10.39;89.15;100596.75;4877512;29;45371;-83
2023/03/16 05:17:57;;;;;;;;;6.00;6.00;;;;;10.36;89.32;100589.66;4877964;29;45732;-84
2023/03/16 05:20:23;;;;;;;;;2.33;2.33;;;;;10.44;89.15;100603.00;4877474;29;45360;-83
2023/03/16 05:22:50;;;;;;;;;6.00;6.00;;;;;10.41;85.65;100601.22;4876350;29;45292;-84
2023/03/16 05:25:16;;;;;;;;;8.00;6.67;;;;;10.44;90.05;100604.78;4876133;29;45477;-83
2023/03/16 05:27:46;;;;;;;;;6.67;6.67;;;;;10.47;86.89;100600.41;4890351;29;45459;-82
2023/03/16 05:30:15;;;;;;;;;5.67;5.67;;;;;10.44;84.68;100600.34;4875596;29;45395;-82
2023/03/16 05:32:40;;;;;;;;;7.67;5.33;;;;;10.26;89.68;100579.75;4875870;28;45323;-83
2023/03/16 05:35:06;;;;;;;;;6.00;5.67;;;;;10.35;88.11;100598.47;4876867;29;45477;-83
2023/03/16 05:37:33;;;;;;;;;4.33;2.67;;;;;10.34;84.18;100594.06;4876596;29;45546;-83
2023/03/16 05:39:59;;;;;;;;;6.33;6.00;;;;;10.36;88.08;100605.59;4877090;29;45450;-83
2023/03/16 05:42:27;;;;;;;;;4.00;4.00;;;;;10.32;83.74;100600.19;4878110;29;45360;-83
2023/03/16 05:44:53;;;;;;;;;8.00;3.00;;;;;10.28;87.23;100601.00;4876549;29;45329;-83
2023/03/16 05:47:19;;;;;;;;;3.00;3.00;;;;;10.31;84.34;100603.75;4892324;29;45423;-84
2023/03/16 05:49:44;;;;;;;;;7.33;6.33;;;;;10.31;83.54;100609.06;4877929;29;44840;-84
2023/03/16 05:52:10;;;;;;;;;5.00;4.67;;;;;10.29;86.53;100605.47;4893428;29;45524;-84
2023/03/16 05:54:38;;;;;;;;;3.00;3.00;;;;;10.39;86.42;100587.00;4891423;29;47920;-84
2023/03/16 05:57:05;;;;;;;;;6.00;5.00;;;;;10.20;83.07;100599.16;4876551;29;45284;-84
2023/03/16 05:59:31;;;;;;;;;2.33;2.33;;;;;10.22;86.26;100593.88;4874919;29;45303;-84
2023/03/16 06:01:59;;;;;;;;;3.67;3.67;;;;;10.40;84.48;100587.91;4891764;29;45298;-84
2023/03/16 06:04:25;;;;;;;;;4.67;3.00;;;;;10.23;86.09;100597.41;4877073;29;45122;-84
2023/03/16 06:06:51;;;;;;;;;3.00;3.00;;;;;10.16;85.07;100599.97;4891218;29;45048;-84
2023/03/16 06:10:00;;;;;;;;;2.33;2.33;;;;;10.44;86.19;100600.34;4891436;29;45463;-84
2023/03/16 06:12:25;;;;;;;;;3.67;1.67;;;;;10.14;83.97;100611.44;4876676;29;45408;-84
2023/03/16 06:14:51;;;;;;;;;3.67;3.00;;;;;10.09;87.02;100595.44;4878032;29;45422;-84
2023/03/16 06:17:16;;;;;;;;;7.33;6.00;;;;;10.13;87.77;100599.94;4891233;29;45419;-84
2023/03/16 06:19:42;;;;;;;;;3.00;3.00;;;;;10.20;85.66;100606.25;4876674;29;45276;-84
2023/03/16 06:22:08;;;;;;;;;6.33;5.00;;;;;10.15;84.75;100592.88;4877997;29;45292;-83
2023/03/16 06:24:34;;;;;;;;;5.00;2.67;;;;;10.16;85.38;100593.75;4873554;29;47286;-84
2023/03/16 06:26:59;;;;;;;;;3.00;3.00;;;;;10.19;83.92;100592.03;4854235;29;45423;-84
2023/03/16 06:29:25;;;;;;;;;1.33;1.33;;;;;10.28;84.83;100596.59;4838529;29;45518;-84
2023/03/16 06:31:53;;;;;;;;;6.33;5.33;;;;;10.36;85.36;100602.94;4839762;29;45497;-84
2023/03/16 06:34:19;;;;;;;;;3.00;3.00;;;;;10.26;81.40;100601.00;4840129;29;45610;-84
2023/03/16 06:36:47;;;;;;;;;4.67;2.00;;;;;10.48;83.86;100591.53;4837899;29;45408;-84
2023/03/16 06:39:13;;;;;;;;;2.00;2.00;;;;;10.29;80.31;100587.75;4838652;29;45215;-84
2023/03/16 06:41:41;;;;;;;;;3.00;3.00;;;;;10.38;81.21;100594.97;4840032;29;45386;-85
2023/03/16 06:44:08;;;;;;;;;2.00;2.00;;;;;10.44;84.39;100583.50;4851850;29;46206;-84
2023/03/16 06:46:34;;;;;;;;;3.00;3.00;;;;;10.39;81.88;100583.47;4876922;29;45664;-84
2023/03/16 06:49:03;;;;;;;;;3.00;2.67;;;;;10.56;82.24;100570.38;4892292;29;45453;-84
2023/03/16 06:51:30;;;;;;;;;4.67;2.33;;;;;10.47;82.56;100579.13;4877215;29;45436;-83
2023/03/16 06:53:55;;;;;;;;;5.33;2.67;;;;;10.41;79.51;100579.06;4892061;29;46836;-84
2023/03/16 06:59:43;;;;;;;;;9.33;6.00;;;;;10.55;78.59;100571.25;4875522;29;45593;-82
2023/03/16 07:02:12;;;;;;;;;2.33;2.33;;;;;10.65;79.14;100561.63;4889785;29;45480;-83
2023/03/16 07:04:37;;;;;;;;;5.00;5.00;;;;;10.54;78.38;100567.72;4890480;29;47782;-83
2023/03/16 07:07:03;;;;;;;;;3.00;3.00;;;;;10.54;79.19;100567.72;4875521;29;45357;-83
2023/03/16 07:09:28;;;;;;;;;6.67;6.00;;;;;10.51;76.09;100565.00;4889267;29;44916;-83
2023/03/16 07:11:55;;;;;;;;;2.67;2.67;;;;;10.66;76.60;100568.69;4873308;29;45419;-83
2023/03/16 07:14:22;;;;;;;;;5.00;3.00;;;;;10.53;78.15;100568.56;4859277;29;45410;-83
2023/03/16 07:16:47;;;;;;;;;2.00;2.00;;;;;10.53;77.05;100560.59;4891812;29;45538;-83
2023/03/16 07:19:13;;;;;;;;;3.00;3.00;;;;;10.55;76.97;100550.88;4875924;29;45443;-83
2023/03/16 07:21:40;;;;;;;;;5.67;5.67;;;;;10.69;77.51;100547.47;4878474;29;45448;-82
2023/03/16 07:24:29;;;;;;;;;2.00;1.67;;;;;10.69;76.10;100553.69;4880187;29;45419;-82
2023/03/16 07:27:28;;;;;;;;;2.33;2.33;;;;;10.68;77.49;100557.19;4876055;29;45293;-82
2023/03/16 07:30:04;;;;;;;;;5.00;5.00;;;;;10.77;78.46;100559.09;4881667;29;44747;-82
2023/03/16 07:32:31;;;;;;;;;3.67;1.67;;;;;10.78;79.55;100547.53;4868917;29;45469;-81
2023/03/16 07:34:57;;;;;;;;;5.00;5.00;;;;;10.84;76.03;100552.94;4867087;29;46010;-83
2023/03/16 07:37:24;;;;;;;;;3.33;3.33;;;;;10.99;76.42;100553.09;4859433;29;45347;-84
2023/03/16 07:39:50;;;;;;;;;6.00;6.00;;;;;10.95;76.73;100561.91;4860817;29;44786;-83
2023/03/16 07:42:18;;;;;;;;;3.00;3.00;;;;;11.16;76.15;100545.25;4874586;29;44968;-81
2023/03/16 07:44:44;;;;;;;;;1.33;1.00;;;;;11.15;75.52;100561.19;4880584;29;45527;-83
2023/03/16 07:47:13;;;;;;;;;3.67;3.67;;;;;11.38;76.03;100556.06;4881922;29;45467;-82
2023/03/16 07:49:40;;;;;;;;;5.00;5.00;;;;;11.23;73.93;100540.88;4882238;29;45484;-83
2023/03/16 07:52:06;;;;;;;;;3.00;3.00;;;;;11.28;72.93;100586.16;4881541;29;44808;-84
2023/03/16 07:54:32;;;;;;;;;3.00;3.00;;;;;11.26;71.75;100562.19;4899088;29;45449;-84
2023/03/16 07:57:00;;;;;;;;;6.67;4.67;;;;;11.35;74.41;100567.59;4882499;29;45622;-83
2023/03/16 07:59:32;;;;;;;;;6.00;3.00;;;;;11.29;71.39;100532.03;4894988;29;45435;-83
2023/03/16 08:02:07;;;;;;;;;4.33;4.33;;;;;11.33;75.90;100518.78;4890845;29;45397;-84
2023/03/16 08:04:44;;;;;;;;;3.33;3.00;;;;;11.45;75.08;100541.03;4900966;29;46999;-82
2023/03/16 08:07:26;;;;;;;;;6.67;5.33;;;;;11.68;73.84;100563.41;4880875;29;44944;-82
2023/03/16 08:09:52;;;;;;;;;5.67;5.67;;;;;11.53;74.45;100572.19;4863557;29;45268;-83
2023/03/16 08:12:21;;;;;;;;;5.67;4.00;;;;;11.67;72.99;100564.25;4890448;29;45544;-83
2023/03/16 08:14:47;;;;;;;;;5.67;5.00;;;;;11.55;78.41;100554.44;4881434;29;44992;-83
2023/03/16 08:17:15;;;;;;;;;3.67;3.67;;;;;11.32;76.65;100519.63;4896598;28;45503;-82
2023/03/16 08:19:41;;;;;;;;;7.33;6.33;;;;;11.67;83.30;100558.94;4881845;29;45345;-83
2023/03/16 08:22:11;;;;;;;;;6.00;6.00;;;;;12.05;78.82;100576.97;4898205;29;45364;-83
2023/03/16 08:24:57;;;;;;;;;3.33;3.33;;;;;11.87;77.07;100516.44;4896841;29;46220;-83
2023/03/16 08:27:29;;;;;;;;;4.00;4.00;;;;;12.28;76.93;100568.19;4871505;29;45940;-81
2023/03/16 08:30:33;;;;;;;;;2.00;2.00;;;;;12.37;72.57;100552.22;4882722;29;46825;-83
2023/03/16 08:33:02;;;;;;;;;4.00;4.00;;;;;12.39;82.04;100532.69;4875597;29;45355;-83
2023/03/16 08:35:28;;;;;;;;;4.67;2.00;;;;;12.35;75.92;100538.00;4903152;29;47033;-81
2023/03/16 08:38:45;;;;;;;;;8.67;7.33;;;;;12.60;74.13;100549.63;4901499;29;44771;-83
2023/03/16 08:41:12;;;;;;;;;6.00;6.00;;;;;12.37;73.05;100526.44;4794693;29;44884;-83
2023/03/16 08:43:55;;;;;;;;;6.00;6.00;;;;;12.77;70.12;100557.69;4783805;29;45456;-83
2023/03/16 08:46:51;;;;;;;;;4.00;3.00;;;;;12.81;68.26;100544.34;4787691;29;47064;-84
2023/03/16 08:49:20;;;;;;;;;4.00;4.00;;;;;12.78;73.29;100546.13;4752166;29;44921;-83
2023/03/16 08:52:27;;;;;;;;;;;;;;;;;;;;;
2023/03/16 08:54:54;;;;;;;;;4.00;4.00;;;;;12.43;71.59;100514.03;4746480;30;65363;-83
2023/03/16 08:57:20;;;;;;;;;3.33;3.00;;;;;12.67;72.93;100523.88;4750642;30;46794;-82
2023/03/16 08:59:45;;;;;;;;;4.00;4.00;;;;;12.96;69.11;100553.25;4764422;29;45538;-82
2023/03/16 09:02:21;;;;;;;;;3.00;3.00;;;;;13.25;75.27;100558.63;4774448;29;44889;-83
2023/03/16 09:08:02;;;;;;;;;7.00;5.67;;;;;13.51;69.33;100515.00;4816772;29;45611;-84
2023/03/16 09:10:31;;;;;;;;;2.67;2.00;;;;;13.57;62.13;100541.72;4777355;29;44817;-83
2023/03/16 09:16:40;;;;;;;;;2.00;2.00;;;;;13.99;64.08;100534.50;4754508;29;44996;-83
2023/03/16 09:19:27;;;;;;;;;2.00;2.00;;;;;13.97;61.95;100522.91;4812790;29;45385;-83
2023/03/16 09:22:42;;;;;;;;;4.00;4.00;;;;;13.84;62.45;100476.63;4805944;29;45680;-83
2023/03/16 09:25:41;;;;;;;;;3.00;3.00;;;;;14.20;65.08;100517.50;4835644;29;45616;-84
2023/03/16 09:35:21;;;;;;;;;2.00;2.00;;;;;14.44;66.05;100470.09;4768266;29;44707;-84
2023/03/16 09:38:18;;;;;;;;;3.33;2.00;;;;;14.60;66.25;100472.72;5046386;23;46056;-83
2023/03/16 09:40:51;;;;;;;;;2.00;2.00;;;;;14.68;62.94;100495.84;4870231;29;45489;-83
2023/03/16 09:43:51;;;;;;;;;;;;;;;;;;;;;
2023/03/16 09:47:25;;;;;;;;;;;;;;;;;;;;;
2023/03/16 09:56:45;;;;;;;;;3.00;2.00;;;;;15.07;61.95;100512.50;4963651;23;46019;-84
2023/03/16 09:59:23;;;;;;;;;2.67;2.67;;;;;14.89;66.31;100470.72;4864684;29;45316;-81
2023/03/16 10:02:31;;;;;;;;;2.00;2.00;;;;;14.93;61.32;100483.19;4869038;29;45431;-82
2023/03/16 10:05:21;;;;;;;;;3.00;3.00;;;;;14.86;59.78;100481.44;4847071;29;45009;-81
2023/03/16 10:08:53;;;;;;;;;2.33;2.00;;;;;14.79;59.99;100459.19;4878190;29;45559;-82
2023/03/16 10:11:47;;;;;;;;;2.00;2.00;;;;;15.00;61.62;100499.16;4842044;29;44731;-80
2023/03/16 10:14:32;;;;;;;;;4.00;3.67;;;;;15.02;63.16;100490.25;4843594;29;45775;-83
2023/03/16 10:17:14;;;;;;;;;2.00;2.00;;;;;14.94;66.61;100452.81;4859274;29;45753;-83
2023/03/16 10:20:07;;;;;;;;;1.67;1.67;;;;;15.40;62.56;100503.28;4842991;29;46892;-80
2023/03/16 10:22:44;;;;;;;;;1.33;1.33;;;;;15.48;67.20;100497.88;4836019;29;45611;-82
2023/03/16 10:26:01;;;;;;;;;5.00;4.33;;;;;15.62;68.56;100490.56;4858840;29;45525;-81
2023/03/16 10:29:18;;;;;;;;;3.33;2.00;;;;;15.58;57.81;100462.03;4835600;29;44866;-83
2023/03/16 10:31:44;;;;;;;;;4.67;3.33;;;;;15.44;62.03;100469.31;4731852;29;45459;-83
2023/03/16 10:34:17;;;;;;;;;1.33;1.33;;;;;15.64;58.08;100451.22;4731115;30;45864;-82
2023/03/16 10:40:36;;;;;;;;;4.67;4.33;;;;;15.82;64.47;100468.06;4710342;29;45566;-83
2023/03/16 10:43:34;;;;;;;;;2.00;2.00;;;;;16.15;58.33;100477.44;4737845;30;46926;-83
2023/03/16 10:46:11;;;;;;;;;5.00;4.00;;;;;15.88;57.08;100455.44;4730679;29;45595;-82
2023/03/16 10:52:49;;;;;;;;;;;;;;;;;;;;;
2023/03/16 11:00:03;;;;;;;;;;;;;;;;;;;;;
2023/03/16 11:02:41;;;;;;;;;3.00;3.00;;;;;16.05;58.70;100447.16;4765632;29;68145;-83
2023/03/16 11:05:39;;;;;;;;;3.00;3.00;;;;;15.76;60.57;100418.06;4767219;29;45446;-83
2023/03/16 11:20:03;;;;;;;;;4.00;4.00;;;;;16.40;64.50;100438.66;4759294;29;45380;-80
2023/03/16 11:26:49;;;;;;;;;4.67;3.00;;;;;16.53;63.98;100420.53;4755905;29;44876;-84
2023/03/16 11:30:08;;;;;;;;;;;;;;;;;;;;;
2023/03/16 12:05:25;;;;;;;;;3.33;3.33;;;;;17.34;59.86;100358.28;4686123;27;45913;-84
2023/03/16 12:08:36;;;;;;;;;3.33;3.33;;;;;17.49;59.49;100351.69;4872952;29;44844;-83
2023/03/16 12:11:42;;;;;;;;;3.00;2.00;;;;;17.69;65.96;100351.28;4875255;29;45431;-82
2023/03/16 12:17:38;;;;;;;;;3.67;3.67;;;;;17.71;55.48;100309.09;4804452;29;45413;-82
2023/03/16 12:20:36;;;;;;;;;1.67;1.00;;;;;17.70;51.12;100301.97;4807631;29;45887;-82
2023/03/16 12:23:40;;;;;;;;;3.33;2.00;;;;;17.96;54.29;100344.44;4814086;29;45414;-84
2023/03/16 12:26:35;;;;;;;;;;;;;;;;;;;;;
2023/03/16 13:39:53;;;;;;;;;4.00;3.00;;;;;19.27;53.89;100209.94;4891999;23;45393;-82
2023/03/16 13:42:48;;;;;;;;;;;;;;;;;;;;;
2023/03/16 13:55:43;;;;;;;;;3.00;2.33;;;;;19.58;55.36;100160.44;4881341;29;44862;-84
2023/03/16 13:59:26;;;;;;;;;;;;;;;;;;;;;
2023/03/16 14:12:19;;;;;;;;;4.00;4.00;;;;;20.37;47.19;100174.88;4880365;29;44717;-86
2023/03/16 14:15:57;;;;;;;;;;;;;;;;;;;;;
2023/03/16 14:22:42;;;;;;;;;6.00;4.00;;;;;20.51;54.68;100167.16;4785453;29;45094;-84
2023/03/16 14:25:28;;;;;;;;;5.00;5.00;;;;;20.72;48.12;100167.34;4765663;29;45728;-83
2023/03/16 14:28:06;;;;;;;;;2.67;2.67;;;;;20.52;51.05;100144.63;4773140;29;45545;-84
2023/03/16 14:31:03;;;;;;;;;4.00;4.00;;;;;20.50;48.18;100143.81;4767507;29;45582;-84
2023/03/16 14:34:20;;;;;;;;;5.67;5.67;;;;;20.41;46.37;100130.63;4786242;29;46550;-84
2023/03/16 14:37:40;;;;;;;;;;;;;;;;;;;;;
2023/03/16 15:11:27;;;;;;;;;2.00;1.00;;;;;20.26;46.05;100086.16;4769722;29;44795;-84
2023/03/16 15:23:40;;;;;;;;;4.00;3.00;;;;;20.32;45.70;100107.53;4713044;30;45549;-84
2023/03/16 15:26:22;;;;;;;;;2.00;2.00;;;;;19.96;44.92;100071.94;4700202;30;44961;-83
2023/03/16 15:29:40;;;;;;;;;3.50;2.25;;;;;20.22;43.04;100076.41;4725563;29;44814;-83
2023/03/16 15:36:00;;;;;;;;;1.00;1.00;;;;;20.29;44.15;100095.97;4712798;29;45453;-84
2023/03/16 15:39:04;;;;;;;;;2.00;2.00;;;;;20.04;41.78;100059.06;4765053;29;45559;-85
2023/03/16 15:47:20;;;;;;;;;1.00;1.00;;;;;20.41;43.30;100090.09;5328587;23;46142;-83
2023/03/16 15:51:11;;;;;;;;;;;;;;;;;;;;;
2023/03/16 15:54:32;;;;;;;;;3.00;1.00;;;;;20.41;42.52;100089.25;4825111;29;65970;-85
2023/03/16 15:56:58;;;;;;;;;3.67;3.67;;;;;20.17;46.24;100071.16;4753194;29;45632;-83
2023/03/16 15:59:38;;;;;;;;;3.67;2.00;;;;;20.30;47.63;100057.19;4880167;29;45443;-82
2023/03/16 16:05:59;;;;;;;;;1.00;1.00;;;;;20.24;46.01;100066.44;4818480;29;45038;-86
2023/03/16 16:08:36;;;;;;;;;3.00;1.00;;;;;20.14;46.07;100043.41;4820359;29;46641;-85
2023/03/16 16:11:15;;;;;;;;;2.00;1.00;;;;;20.09;47.73;100050.78;4811736;29;45451;-84